createdAt,value
2018-12-27T00:01:37.287Z,20.27
2018-12-27T00:04:05.628Z,20.37
2018-12-27T00:06:35.278Z,18.27
2018-12-27T00:09:04.831Z,19.47
2018-12-27T00:11:33.113Z,18.30
2018-12-27T00:14:01.324Z,18.60
2018-12-27T00:16:30.221Z,20.07
2018-12-27T00:18:58.498Z,20.43
2018-12-27T00:21:27.404Z,19.20
2018-12-27T00:23:55.448Z,18.50
2018-12-27T00:26:24.206Z,18.93
2018-12-27T00:28:52.521Z,17.87
2018-12-27T00:31:20.849Z,17.53
2018-12-27T00:33:49.997Z,17.03
2018-12-27T00:36:20.012Z,17.83
2018-12-27T00:38:51.517Z,18.77
2018-12-27T00:41:19.559Z,18.27
2018-12-27T00:43:49.207Z,16.97
2018-12-27T00:46:17.260Z,18.60
2018-12-27T00:48:45.538Z,19.30
2018-12-27T00:51:13.808Z,19.53
2018-12-27T00:53:42.423Z,20.47
2018-12-27T00:56:10.849Z,20.17
2018-12-27T00:58:39.930Z,20.37
2018-12-27T01:01:08.572Z,20.83
2018-12-27T01:03:37.598Z,20.90
2018-12-27T01:06:05.797Z,21.23
2018-12-27T01:08:34.732Z,21.63
2018-12-27T01:11:02.849Z,20.13
2018-12-27T01:13:34.191Z,18.77
2018-12-27T01:16:02.645Z,19.50
2018-12-27T01:18:31.098Z,17.80
2018-12-27T01:20:59.433Z,20.07
2018-12-27T01:23:27.676Z,19.13
2018-12-27T01:25:55.791Z,19.40
2018-12-27T01:28:24.788Z,20.93
2018-12-27T01:30:53.586Z,21.10
2018-12-27T01:33:21.814Z,19.90
2018-12-27T01:35:49.933Z,21.93
2018-12-27T01:38:18.652Z,20.10
2018-12-27T01:40:46.759Z,19.50
2018-12-27T01:43:15.657Z,19.47
2018-12-27T01:45:44.530Z,19.00
2018-12-27T01:48:12.677Z,17.83
2018-12-27T01:50:40.715Z,19.57
2018-12-27T01:53:09.026Z,19.47
2018-12-27T01:55:37.242Z,19.10
2018-12-27T01:58:06.028Z,19.27
2018-12-27T02:00:34.471Z,19.37
2018-12-27T02:03:02.887Z,19.27
2018-12-27T02:05:31.093Z,20.23
2018-12-27T02:07:59.339Z,19.67
2018-12-27T02:10:28.024Z,20.57
2018-12-27T02:12:57.425Z,21.10
2018-12-27T02:15:26.439Z,21.87
2018-12-27T02:17:54.682Z,21.73
2018-12-27T02:20:22.651Z,21.90
2018-12-27T02:22:51.288Z,20.77
2018-12-27T02:25:20.436Z,21.67
2018-12-27T02:27:49.755Z,20.87
2018-12-27T02:30:18.196Z,20.73
2018-12-27T02:32:48.584Z,19.73
2018-12-27T02:35:16.787Z,19.10
2018-12-27T02:37:45.664Z,20.50
2018-12-27T02:40:13.682Z,18.63
2018-12-27T02:42:41.938Z,17.80
2018-12-27T02:45:10.023Z,17.97
2018-12-27T02:47:38.451Z,17.37
2018-12-27T02:50:07.591Z,16.33
2018-12-27T02:52:36.807Z,15.83
2018-12-27T02:55:05.355Z,15.23
2018-12-27T02:57:33.903Z,14.80
2018-12-27T03:00:02.517Z,14.10
2018-12-27T03:02:30.861Z,15.43
2018-12-27T03:04:59.007Z,15.73
2018-12-27T03:07:27.635Z,15.80
2018-12-27T03:09:55.815Z,14.40
2018-12-27T03:12:24.113Z,14.33
2018-12-27T03:14:53.023Z,15.23
2018-12-27T03:17:23.521Z,15.27
2018-12-27T03:19:52.543Z,15.53
2018-12-27T03:22:21.443Z,15.33
2018-12-27T03:24:50.608Z,16.40
2018-12-27T03:27:20.384Z,14.33
2018-12-27T03:29:48.442Z,13.57
2018-12-27T03:32:16.663Z,13.80
2018-12-27T03:34:44.712Z,14.17
2018-12-27T03:37:13.796Z,14.30
2018-12-27T03:39:41.827Z,16.20
2018-12-27T03:42:09.868Z,14.60
2018-12-27T03:44:38.948Z,15.97
2018-12-27T03:47:07.415Z,17.33
2018-12-27T03:49:36.175Z,15.67
2018-12-27T03:52:04.343Z,17.53
2018-12-27T03:54:32.916Z,17.50
2018-12-27T03:57:01.887Z,17.73
2018-12-27T03:59:31.561Z,16.80
2018-12-27T04:01:59.939Z,16.83
2018-12-27T04:04:28.570Z,16.03
2018-12-27T04:06:56.813Z,16.77
2018-12-27T04:09:25.030Z,16.00
2018-12-27T04:11:53.712Z,18.13
2018-12-27T04:14:22.106Z,16.70
2018-12-27T04:16:52.648Z,17.17
2018-12-27T04:19:21.011Z,17.17
2018-12-27T04:21:49.254Z,17.20
2018-12-27T04:24:19.688Z,18.43
2018-12-27T04:26:49.732Z,18.63
2018-12-27T04:29:17.888Z,17.97
2018-12-27T04:31:47.203Z,17.90
2018-12-27T04:34:16.332Z,19.03
2018-12-27T04:36:46.318Z,17.53
2018-12-27T04:39:14.543Z,17.67
2018-12-27T04:41:46.023Z,17.03
2018-12-27T04:44:15.297Z,16.23
2018-12-27T04:46:43.786Z,17.13
2018-12-27T04:49:12.202Z,16.37
2018-12-27T04:51:41.084Z,16.93
2018-12-27T04:54:10.425Z,16.30
2018-12-27T04:56:38.653Z,16.53
2018-12-27T04:59:07.288Z,19.07
2018-12-27T05:01:36.860Z,15.87
2018-12-27T05:04:06.542Z,17.37
2018-12-27T05:06:34.728Z,17.13
2018-12-27T05:09:05.855Z,18.83
2018-12-27T05:11:35.067Z,18.03
2018-12-27T05:14:03.244Z,17.80
2018-12-27T05:16:31.364Z,17.27
2018-12-27T05:19:00.221Z,16.97
2018-12-27T05:21:28.686Z,15.93
2018-12-27T05:23:56.731Z,15.47
2018-12-27T05:26:25.137Z,14.60
2018-12-27T05:28:53.414Z,17.07
2018-12-27T05:31:21.702Z,15.03
2018-12-27T05:33:50.448Z,14.07
2018-12-27T05:36:18.611Z,14.03
2018-12-27T05:38:47.449Z,12.83
2018-12-27T05:41:15.515Z,13.20
2018-12-27T05:43:43.646Z,13.10
2018-12-27T05:46:11.759Z,13.83
2018-12-27T05:48:40.758Z,12.10
2018-12-27T05:51:09.018Z,11.07
2018-12-27T05:53:37.247Z,11.63
2018-12-27T05:56:05.805Z,11.97
2018-12-27T05:58:34.195Z,12.57
2018-12-27T06:01:03.260Z,12.80
2018-12-27T06:03:31.545Z,11.43
2018-12-27T06:06:00.380Z,11.60
2018-12-27T06:08:28.765Z,11.63
2018-12-27T06:10:57.568Z,11.37
2018-12-27T06:13:25.857Z,11.60
2018-12-27T06:15:54.098Z,11.53
2018-12-27T06:18:22.373Z,11.23
2018-12-27T06:20:51.201Z,11.00
2018-12-27T06:23:19.488Z,10.90
2018-12-27T06:25:47.844Z,10.67
2018-12-27T06:28:16.660Z,10.63
2018-12-27T06:30:46.115Z,10.73
2018-12-27T06:33:15.124Z,11.90
2018-12-27T06:35:43.312Z,12.30
2018-12-27T06:38:11.798Z,11.63
2018-12-27T06:40:40.754Z,12.07
2018-12-27T06:43:08.949Z,11.67
2018-12-27T06:45:37.035Z,11.60
2018-12-27T06:48:05.310Z,11.03
2018-12-27T06:50:34.068Z,11.43
2018-12-27T06:53:02.594Z,11.50
2018-12-27T06:55:30.880Z,11.10
2018-12-27T06:57:59.896Z,10.57
2018-12-27T07:00:28.528Z,10.80
2018-12-27T07:02:56.904Z,10.43
2018-12-27T07:05:25.404Z,10.83
2018-12-27T07:07:53.722Z,10.23
2018-12-27T07:10:21.958Z,9.90
2018-12-27T07:12:51.308Z,10.00
2018-12-27T07:15:20.129Z,10.27
2018-12-27T07:17:49.553Z,9.60
2018-12-27T07:20:18.405Z,10.40
2018-12-27T07:22:46.498Z,9.20
2018-12-27T07:25:15.973Z,10.13
2018-12-27T07:27:44.855Z,10.47
2018-12-27T07:30:14.013Z,10.67
2018-12-27T07:32:45.146Z,10.50
2018-12-27T07:35:13.524Z,10.03
2018-12-27T07:37:41.884Z,10.97
2018-12-27T07:40:10.348Z,10.87
2018-12-27T07:42:38.544Z,11.17
2018-12-27T07:45:07.083Z,11.60
2018-12-27T07:47:36.122Z,11.83
2018-12-27T07:50:05.027Z,10.83
2018-12-27T07:52:33.251Z,13.13
2018-12-27T07:55:01.650Z,12.40
2018-12-27T07:57:30.260Z,12.07
2018-12-27T07:59:58.575Z,14.03
2018-12-27T08:02:27.305Z,13.87
2018-12-27T08:05:03.676Z,12.80
2018-12-27T08:07:27.796Z,13.47
2018-12-27T08:09:56.170Z,14.10
2018-12-27T08:12:24.564Z,13.00
2018-12-27T08:14:53.826Z,12.77
2018-12-27T08:17:22.278Z,12.53
2018-12-27T08:19:51.921Z,11.97
2018-12-27T08:22:20.374Z,13.53
2018-12-27T08:24:48.980Z,13.40
2018-12-27T08:27:17.344Z,13.60
2018-12-27T08:29:45.599Z,13.97
2018-12-27T08:32:14.072Z,15.13
2018-12-27T08:34:42.381Z,13.77
2018-12-27T08:37:10.664Z,14.90
2018-12-27T08:39:39.042Z,15.50
2018-12-27T08:42:07.857Z,16.57
2018-12-27T08:44:35.972Z,16.43
2018-12-27T08:47:04.153Z,17.07
2018-12-27T08:49:32.792Z,18.40
2018-12-27T08:52:01.570Z,16.50
2018-12-27T08:54:30.976Z,15.53
2018-12-27T08:56:59.779Z,19.80
2018-12-27T08:59:30.516Z,19.40
2018-12-27T09:01:59.641Z,19.63
2018-12-27T09:04:28.043Z,16.10
2018-12-27T09:06:56.359Z,17.80
2018-12-27T09:09:24.714Z,19.13
2018-12-27T09:11:53.558Z,10.63
2018-12-27T09:14:21.728Z,10.83
2018-12-27T09:16:50.561Z,11.47
2018-12-27T09:19:20.423Z,10.93
2018-12-27T09:21:49.298Z,10.57
2018-12-27T09:24:17.521Z,9.67
2018-12-27T09:26:45.824Z,8.60
2018-12-27T09:29:14.395Z,8.93
2018-12-27T09:31:42.889Z,7.77
2018-12-27T09:34:11.151Z,7.50
2018-12-27T09:36:39.575Z,8.07
2018-12-27T09:39:07.910Z,6.93
2018-12-27T09:41:36.609Z,7.40
2018-12-27T09:44:04.785Z,7.27
2018-12-27T09:46:32.972Z,8.33
2018-12-27T09:49:01.099Z,7.67
2018-12-27T09:51:31.550Z,7.40
2018-12-27T09:53:59.918Z,7.07
2018-12-27T09:56:28.382Z,6.80
2018-12-27T09:58:56.587Z,7.23
2018-12-27T10:01:24.771Z,7.40
2018-12-27T10:04:00.474Z,7.90
2018-12-27T10:06:28.955Z,6.93
2018-12-27T10:08:58.737Z,7.47
2018-12-27T10:11:26.710Z,7.70
2018-12-27T10:13:55.637Z,7.90
2018-12-27T10:16:24.893Z,7.67
2018-12-27T10:18:53.025Z,8.53
2018-12-27T10:21:21.435Z,7.40
2018-12-27T10:23:50.137Z,7.37
2018-12-27T10:26:18.367Z,9.10
2018-12-27T10:28:46.546Z,8.20
2018-12-27T10:31:14.892Z,8.93
2018-12-27T10:33:43.219Z,7.70
2018-12-27T10:36:12.469Z,7.90
2018-12-27T10:38:40.924Z,7.80
2018-12-27T10:41:09.490Z,8.10
2018-12-27T10:43:38.021Z,7.90
2018-12-27T10:46:06.202Z,7.33
2018-12-27T10:48:34.371Z,7.60
2018-12-27T10:51:02.984Z,7.17
2018-12-27T10:53:30.831Z,7.30
2018-12-27T10:55:59.278Z,8.00
2018-12-27T10:58:27.894Z,5.63
2018-12-27T11:00:56.279Z,6.87
2018-12-27T11:03:30.506Z,6.33
2018-12-27T11:05:54.955Z,6.30
2018-12-27T11:08:23.196Z,5.73
2018-12-27T11:10:51.793Z,5.73
2018-12-27T11:13:21.360Z,5.60
2018-12-27T11:15:49.869Z,5.60
2018-12-27T11:18:19.617Z,5.37
2018-12-27T11:20:48.393Z,5.97
2018-12-27T11:23:17.382Z,6.07
2018-12-27T11:25:46.395Z,6.40
2018-12-27T11:28:16.884Z,5.97
2018-12-27T11:30:45.554Z,6.23
2018-12-27T11:33:15.469Z,6.67
2018-12-27T11:35:43.793Z,7.10
2018-12-27T11:38:12.162Z,7.77
2018-12-27T11:40:47.496Z,7.43
2018-12-27T11:43:16.321Z,7.47
2018-12-27T11:45:44.351Z,7.13
2018-12-27T11:48:13.526Z,6.57
2018-12-27T11:50:43.050Z,5.77
2018-12-27T11:53:12.116Z,6.53
2018-12-27T11:55:40.684Z,6.00
2018-12-27T11:58:09.293Z,7.37
2018-12-27T12:00:39.209Z,6.30
2018-12-27T12:03:09.694Z,6.83
2018-12-27T12:05:38.290Z,7.73
2018-12-27T12:08:08.206Z,8.07
2018-12-27T12:10:36.487Z,8.70
2018-12-27T12:13:06.060Z,7.63
2018-12-27T12:15:53.030Z,7.60
2018-12-27T12:18:22.644Z,8.53
2018-12-27T12:20:51.187Z,8.73
2018-12-27T12:23:19.766Z,7.97
2018-12-27T12:25:51.608Z,8.20
2018-12-27T12:28:20.664Z,10.03
2018-12-27T12:30:49.979Z,7.83
2018-12-27T12:33:18.801Z,6.47
2018-12-27T12:35:47.867Z,8.67
2018-12-27T12:38:16.909Z,9.20
2018-12-27T12:40:45.490Z,10.07
2018-12-27T12:43:13.552Z,9.60
2018-12-27T12:45:47.868Z,10.50
2018-12-27T12:48:18.546Z,9.83
2018-12-27T12:50:47.128Z,9.70
2018-12-27T12:53:15.261Z,11.07
2018-12-27T12:55:44.138Z,10.10
2018-12-27T12:58:12.229Z,10.07
2018-12-27T13:00:40.476Z,10.83
2018-12-27T13:03:08.858Z,9.70
2018-12-27T13:05:37.572Z,10.10
2018-12-27T13:08:05.733Z,11.17
2018-12-27T13:10:34.178Z,10.50
2018-12-27T13:13:02.332Z,9.90
2018-12-27T13:15:30.993Z,9.90
2018-12-27T13:17:59.093Z,9.47
2018-12-27T13:20:27.235Z,9.43
2018-12-27T13:22:56.170Z,8.63
2018-12-27T13:25:24.758Z,9.47
2018-12-27T13:27:52.809Z,8.60
2018-12-27T13:30:21.355Z,8.57
2018-12-27T13:32:49.684Z,9.30
2018-12-27T13:35:18.026Z,9.00
2018-12-27T13:37:47.432Z,11.17
2018-12-27T13:40:15.622Z,10.60
2018-12-27T13:42:44.631Z,9.87
2018-12-27T13:45:12.849Z,9.17
2018-12-27T13:47:41.980Z,9.80
2018-12-27T13:50:10.901Z,9.17
2018-12-27T13:52:39.533Z,9.63
2018-12-27T13:55:08.564Z,9.23
2018-12-27T13:57:36.649Z,8.37
2018-12-27T14:00:05.818Z,8.60
2018-12-27T14:02:34.368Z,9.93
2018-12-27T14:05:03.114Z,9.27
2018-12-27T14:07:44.096Z,9.30
2018-12-27T14:10:12.813Z,10.97
2018-12-27T14:12:41.812Z,10.57
2018-12-27T14:15:11.570Z,11.10
2018-12-27T14:17:40.044Z,9.20
2018-12-27T14:20:08.675Z,9.40
2018-12-27T14:22:36.958Z,9.60
2018-12-27T14:25:07.498Z,9.80
2018-12-27T14:27:36.867Z,10.07
2018-12-27T14:30:05.949Z,10.00
2018-12-27T14:32:35.337Z,9.40
2018-12-27T14:35:04.800Z,9.47
2018-12-27T14:37:33.858Z,9.17
2018-12-27T14:40:02.541Z,9.53
2018-12-27T14:42:31.413Z,7.80
2018-12-27T14:44:59.849Z,7.77
2018-12-27T14:47:29.640Z,8.70
2018-12-27T14:49:58.655Z,8.80
2018-12-27T14:52:27.138Z,9.33
2018-12-27T14:54:56.781Z,10.33
2018-12-27T14:57:25.123Z,10.47
2018-12-27T14:59:53.820Z,11.80
2018-12-27T15:02:22.424Z,11.33
2018-12-27T15:04:50.784Z,12.60
2018-12-27T15:07:19.302Z,14.03
2018-12-27T15:09:49.649Z,12.87
2018-12-27T15:12:18.341Z,14.30
2018-12-27T15:14:46.685Z,14.80
2018-12-27T15:17:15.524Z,14.57
2018-12-27T15:19:43.905Z,12.70
2018-12-27T15:22:12.874Z,13.33
2018-12-27T15:24:41.163Z,10.57
2018-12-27T15:27:11.308Z,10.63
2018-12-27T15:29:39.353Z,10.60
2018-12-27T15:32:08.911Z,10.07
2018-12-27T15:34:37.378Z,10.00
2018-12-27T15:37:05.659Z,9.80
2018-12-27T15:39:34.450Z,9.90
2018-12-27T15:42:02.987Z,9.63
2018-12-27T15:44:32.931Z,11.63
2018-12-27T15:47:01.072Z,10.00
2018-12-27T15:49:29.183Z,12.23
2018-12-27T15:51:57.692Z,12.43
2018-12-27T15:54:26.836Z,13.33
2018-12-27T15:56:55.189Z,12.07
2018-12-27T15:59:23.168Z,14.93
2018-12-27T16:01:52.069Z,14.10
2018-12-27T16:04:20.307Z,13.97
2018-12-27T16:06:49.010Z,14.87
2018-12-27T16:09:20.318Z,17.07
2018-12-27T16:11:48.823Z,16.13
2018-12-27T16:14:17.096Z,16.20
2018-12-27T16:16:45.415Z,17.97
2018-12-27T16:19:14.207Z,16.80
2018-12-27T16:21:44.172Z,16.27
2018-12-27T16:24:12.993Z,17.23
2018-12-27T16:26:41.699Z,15.53
2018-12-27T16:29:10.239Z,13.83
2018-12-27T16:31:38.869Z,16.03
2018-12-27T16:34:07.188Z,15.90
2018-12-27T16:36:35.995Z,16.23
2018-12-27T16:39:05.833Z,14.67
2018-12-27T16:41:36.372Z,16.03
2018-12-27T16:44:04.515Z,15.13
2018-12-27T16:46:32.870Z,14.30
2018-12-27T16:49:02.139Z,12.77
2018-12-27T16:51:30.914Z,13.90
2018-12-27T16:53:59.817Z,13.20
2018-12-27T16:56:27.995Z,13.07
2018-12-27T16:58:57.042Z,12.27
2018-12-27T17:01:25.486Z,11.10
2018-12-27T17:03:53.615Z,12.30
2018-12-27T17:06:22.356Z,11.37
2018-12-27T17:08:50.827Z,12.30
2018-12-27T17:11:19.566Z,12.13
2018-12-27T17:13:47.651Z,10.67
2018-12-27T17:16:16.688Z,10.03
2018-12-27T17:18:45.942Z,10.33
2018-12-27T17:21:16.762Z,10.63
2018-12-27T17:23:47.977Z,10.27
2018-12-27T17:26:20.082Z,10.50
2018-12-27T17:28:51.724Z,12.23
2018-12-27T17:31:20.714Z,12.63
2018-12-27T17:33:49.204Z,12.60
2018-12-27T17:36:18.230Z,12.83
2018-12-27T17:38:46.605Z,12.93
2018-12-27T17:41:15.407Z,14.50
2018-12-27T17:43:45.023Z,15.53
2018-12-27T17:46:15.516Z,14.83
2018-12-27T17:48:44.086Z,15.60
2018-12-27T17:51:19.130Z,16.27
2018-12-27T17:53:50.237Z,13.87
2018-12-27T17:56:18.963Z,14.50
2018-12-27T17:58:48.606Z,17.53
2018-12-27T18:01:22.024Z,17.40
2018-12-27T18:03:50.708Z,16.80
2018-12-27T18:06:19.234Z,14.63
2018-12-27T18:08:47.825Z,15.43
2018-12-27T18:11:15.952Z,14.70
2018-12-27T18:13:44.898Z,14.57
2018-12-27T18:16:13.601Z,15.77
2018-12-27T18:18:43.958Z,16.27
2018-12-27T18:21:14.213Z,16.00
2018-12-27T18:23:44.438Z,15.33
2018-12-27T18:26:12.678Z,15.43
2018-12-27T18:28:41.518Z,18.43
2018-12-27T18:31:09.672Z,16.90
2018-12-27T18:33:38.353Z,14.83
2018-12-27T18:36:06.451Z,14.90
2018-12-27T18:38:35.215Z,16.63
2018-12-27T18:41:04.236Z,15.83
2018-12-27T18:43:35.864Z,15.80
2018-12-27T18:46:04.559Z,15.80
2018-12-27T18:48:33.346Z,17.17
2018-12-27T18:51:02.906Z,17.37
2018-12-27T18:53:32.012Z,19.47
2018-12-27T18:56:00.732Z,20.57
2018-12-27T18:58:31.700Z,22.20
2018-12-27T19:01:00.327Z,19.13
2018-12-27T19:03:29.856Z,20.80
2018-12-27T19:05:58.185Z,19.40
2018-12-27T19:08:26.322Z,20.00
2018-12-27T19:11:31.141Z,18.60
2018-12-27T19:13:59.617Z,20.83
2018-12-27T19:16:29.431Z,19.23
2018-12-27T19:18:59.139Z,21.03
2018-12-27T19:21:59.777Z,21.17
2018-12-27T19:24:27.909Z,18.03
2018-12-27T19:26:57.403Z,19.90
2018-12-27T19:29:25.845Z,20.20
2018-12-27T19:31:54.886Z,20.23
2018-12-27T19:34:26.147Z,20.60
2018-12-27T19:36:55.391Z,20.30
2018-12-27T19:39:24.834Z,20.97
2018-12-27T19:41:53.242Z,20.17
2018-12-27T19:44:21.533Z,20.13
2018-12-27T19:46:49.534Z,21.83
2018-12-27T19:49:17.739Z,18.60
2018-12-27T19:51:46.666Z,20.13
2018-12-27T19:54:15.215Z,18.40
2018-12-27T19:56:44.216Z,17.87
2018-12-27T19:59:12.591Z,19.33
2018-12-27T20:01:41.250Z,18.67
2018-12-27T20:04:09.555Z,19.50
2018-12-27T20:06:38.691Z,19.00
2018-12-27T20:09:07.356Z,19.60
2018-12-27T20:11:35.654Z,18.57
2018-12-27T20:14:05.024Z,19.50
2018-12-27T20:16:33.768Z,20.40
2018-12-27T20:19:02.057Z,19.23
2018-12-27T20:21:32.026Z,19.20
2018-12-27T20:24:00.268Z,19.47
2018-12-27T20:26:29.442Z,19.93
2018-12-27T20:28:57.970Z,20.53
2018-12-27T20:31:26.348Z,21.07
2018-12-27T20:33:54.627Z,17.33
2018-12-27T20:36:22.763Z,15.33
2018-12-27T20:38:51.498Z,16.83
2018-12-27T20:41:20.793Z,17.27
2018-12-27T20:43:49.374Z,14.83
2018-12-27T20:46:20.294Z,13.83
2018-12-27T20:48:48.367Z,13.83
2018-12-27T20:51:16.848Z,12.07
2018-12-27T20:53:46.144Z,12.70
2018-12-27T20:56:21.491Z,12.00
2018-12-27T20:58:51.208Z,12.03
2018-12-27T21:01:19.529Z,12.93
2018-12-27T21:03:51.754Z,14.73
2018-12-27T21:06:22.152Z,14.97
2018-12-27T21:08:50.560Z,14.23
2018-12-27T21:11:18.787Z,14.50
2018-12-27T21:13:47.351Z,14.53
2018-12-27T21:16:17.031Z,14.90
2018-12-27T21:18:45.434Z,15.07
2018-12-27T21:21:14.234Z,15.07
2018-12-27T21:30:03.460Z,14.27
2018-12-27T21:32:55.773Z,15.87
2018-12-27T21:35:59.093Z,15.60
2018-12-27T21:38:46.262Z,15.77
2018-12-27T21:41:35.860Z,15.20
2018-12-27T21:44:24.014Z,16.03
2018-12-27T21:47:12.370Z,15.30
2018-12-27T21:50:00.241Z,16.13
2018-12-27T21:52:48.141Z,15.93
2018-12-27T21:55:17.358Z,17.07
2018-12-27T21:57:54.407Z,17.03
2018-12-27T22:00:24.046Z,17.23
2018-12-27T22:03:03.862Z,16.83
2018-12-27T22:05:34.580Z,16.60
2018-12-27T22:08:04.678Z,18.10
2018-12-27T22:10:35.743Z,17.37
2018-12-27T22:13:07.118Z,17.20
2018-12-27T22:15:37.009Z,16.73
2018-12-27T22:18:06.906Z,17.67
2018-12-27T22:20:49.152Z,18.30
2018-12-27T22:23:19.323Z,18.40
2018-12-27T22:25:50.074Z,18.10
2018-12-27T22:28:23.993Z,20.53
2018-12-27T22:30:53.928Z,19.40
2018-12-27T22:33:26.578Z,19.30
2018-12-27T22:35:58.312Z,21.37
2018-12-27T22:38:35.576Z,22.57
2018-12-27T22:41:05.093Z,24.13
2018-12-27T22:43:34.965Z,22.70
2018-12-27T22:46:05.176Z,35.10
2018-12-27T22:48:42.516Z,25.00
2018-12-27T22:51:15.658Z,24.57
2018-12-27T22:53:45.196Z,27.37
2018-12-27T22:56:17.334Z,23.63
2018-12-27T22:58:47.328Z,24.43
2018-12-27T23:01:20.197Z,22.07
2018-12-27T23:03:52.430Z,23.83
2018-12-27T23:06:21.620Z,22.37
2018-12-27T23:08:52.731Z,22.30
2018-12-27T23:11:25.297Z,21.00
2018-12-27T23:13:55.209Z,22.33
2018-12-27T23:16:24.887Z,22.10
2018-12-27T23:18:54.527Z,21.53
2018-12-27T23:21:26.008Z,22.03
2018-12-27T23:23:55.960Z,22.37
2018-12-27T23:26:32.514Z,21.50
2018-12-27T23:29:01.937Z,22.13
2018-12-27T23:31:33.374Z,24.00
2018-12-27T23:34:08.693Z,23.40
2018-12-27T23:36:40.154Z,24.20
2018-12-27T23:39:12.153Z,24.43
2018-12-27T23:41:44.862Z,22.53
2018-12-27T23:44:14.020Z,22.27
2018-12-27T23:46:48.284Z,22.20
2018-12-27T23:49:17.877Z,21.50
2018-12-27T23:51:50.655Z,23.07
2018-12-27T23:54:20.005Z,24.43
2018-12-27T23:56:50.443Z,23.60
2018-12-27T23:59:21.835Z,20.77
